Time;durP1;ratioP1;P1;durP2;ratioP2;P2;SDS_P1;SDS_P2;PMS_P1;PMS_P2;Temp;Humidity;BMP_temperature;BMP_pressure;BME280_temperature;BME280_humidity;BME280_pressure;Samples;Min_cycle;Max_cycle;Signal;HPM_P1;HPM_P2
2024/04/12 00:01:02;;;;;;;;;;;;;;;;;;5391497;26;4688;-57
2024/04/12 00:03:28;;;;;;;;;;;;;;;;;;5392263;26;4546;-58
2024/04/12 00:06:17;;;;;;;;;;;;;;;;;;5404918;26;5224;-58
2024/04/12 00:08:48;;;;;;;;;;;;;;;;;;5386846;26;1864;-58
2024/04/12 00:11:19;;;;;;;;;;;;;;;;;;5428149;26;5047;-57
2024/04/12 00:13:45;;;;;;;;;;;;;;;;;;5413968;26;4741;-58
2024/04/12 00:16:10;;;;;;;;;;;;;;;;;;5433783;26;5776;-57
2024/04/12 00:18:37;;;;;;;;;;;;;;;;;;5398225;26;4518;-58
2024/04/12 00:21:04;;;;;;;;;;;;;;;;;;5398889;26;5323;-58
2024/04/12 00:23:33;;;;;;;;;;;;;;;;;;5426582;26;1386;-58
2024/04/12 00:26:01;;;;;;;;;;;;;;;;;;5430249;26;5011;-58
2024/04/12 00:28:32;;;;;;;;;;;;;;;;;;5397078;26;4501;-58
2024/04/12 00:30:59;;;;;;;;;;;;;;;;;;5394599;26;5200;-58
2024/04/12 00:33:31;;;;;;;;;;;;;;;;;;5392947;26;5119;-58
2024/04/12 00:35:56;;;;;;;;;;;;;;;;;;5398315;26;5099;-58
2024/04/12 00:38:23;;;;;;;;;;;;;;;;;;5388532;26;3680;-57
2024/04/12 00:40:52;;;;;;;;;;;;;;;;;;5396331;26;5340;-58
2024/04/12 00:43:18;;;;;;;;;;;;;;;;;;5388117;26;5202;-58
2024/04/12 00:45:52;;;;;;;;;;;;;;;;;;5391303;26;5358;-58
2024/04/12 00:48:17;;;;;;;;;;;;;;;;;;5392079;26;4555;-57
2024/04/12 00:50:43;;;;;;;;;;;;;;;;;;5424511;26;1304;-58
2024/04/12 00:53:09;;;;;;;;;;;;;;;;;;5418987;26;5008;-58
2024/04/12 00:55:39;;;;;;;;;;;;;;;;;;5440990;26;4464;-58
2024/04/12 00:58:10;;;;;;;;;;;;;;;;;;5416901;26;5206;-58
2024/04/12 01:00:35;;;;;;;;;;;;;;;;;;5430797;26;5128;-57
2024/04/12 01:03:05;;;;;;;;;;;;;;;;;;5414109;26;5212;-58
2024/04/12 01:05:32;;;;;;;;;;;;;;;;;;5409171;26;3316;-58
2024/04/12 01:08:00;;;;;;;;;;;;;;;;;;5388604;26;5287;-58
2024/04/12 01:10:25;;;;;;;;;;;;;;;;;;5391910;26;5129;-57
2024/04/12 01:12:55;;;;;;;;;;;;;;;;;;5395387;26;4703;-57
2024/04/12 01:15:23;;;;;;;;;;;;;;;;;;5408395;26;5251;-57
2024/04/12 01:17:49;;;;;;;;;;;;;;;;;;5425924;26;5255;-57
2024/04/12 01:20:16;;;;;;;;;;;;;;;;;;5421447;26;3584;-58
2024/04/12 01:22:44;;;;;;;;;;;;;;;;;;5425280;26;5131;-58
2024/04/12 01:25:10;;;;;;;;;;;;;;;;;;5417227;26;4697;-58
2024/04/12 01:27:37;;;;;;;;;;;;;;;;;;5423745;26;5172;-57
2024/04/12 01:30:03;;;;;;;;;;;;;;;;;;5421428;26;5216;-57
2024/04/12 01:32:30;;;;;;;;;;;;;;;;;;5432678;26;3581;-57
2024/04/12 01:34:55;;;;;;;;;;;;;;;;;;5417865;26;5146;-58
2024/04/12 01:37:21;;;;;;;;;;;;;;;;;;5421738;26;5204;-58
2024/04/12 01:39:49;;;;;;;;;;;;;;;;;;5424727;26;5144;-57
2024/04/12 01:42:17;;;;;;;;;;;;;;;;;;5411579;26;5417;-57
2024/04/12 01:45:13;;;;;;;;;;;;;;;;;;5423794;26;3561;-57
2024/04/12 01:47:34;;;;;;;;;;;;;;;;;;5422988;26;4428;-58
2024/04/12 01:50:02;;;;;;;;;;;;;;;;;;5421328;26;5059;-58
2024/04/12 01:52:30;;;;;;;;;;;;;;;;;;5419723;26;5179;-57
2024/04/12 01:55:05;;;;;;;;;;;;;;;;;;5404199;26;5212;-58
2024/04/12 01:57:31;;;;;;;;;;;;;;;;;;5379526;26;5256;-58
2024/04/12 01:59:56;;;;;;;;;;;;;;;;;;5391930;26;5340;-57
2024/04/12 02:02:22;;;;;;;;;;;;;;;;;;5398234;26;1842;-57
2024/04/12 02:04:51;;;;;;;;;;;;;;;;;;5375510;26;5090;-57
2024/04/12 02:07:16;;;;;;;;;;;;;;;;;;5384956;26;4699;-57
2024/04/12 02:09:42;;;;;;;;;;;;;;;;;;5383904;26;4767;-58
2024/04/12 02:12:07;;;;;;;;;;;;;;;;;;5386622;26;5303;-57
2024/04/12 02:14:33;;;;;;;;;;;;;;;;;;5375026;26;3614;-57
2024/04/12 02:16:58;;;;;;;;;;;;;;;;;;5385885;26;5751;-57
2024/04/12 02:19:25;;;;;;;;;;;;;;;;;;5405165;26;5238;-57
2024/04/12 02:21:50;;;;;;;;;;;;;;;;;;5416413;26;4648;-58
2024/04/12 02:24:17;;;;;;;;;;;;;;;;;;5422350;26;5267;-57
2024/04/12 02:26:42;;;;;;;;;;;;;;;;;;5429403;26;3745;-57
2024/04/12 02:29:08;;;;;;;;;;;;;;;;;;5419385;26;5012;-57
2024/04/12 02:31:37;;;;;;;;;;;;;;;;;;5430866;26;5994;-57
2024/04/12 02:34:02;;;;;;;;;;;;;;;;;;5419015;26;5048;-57
2024/04/12 02:36:30;;;;;;;;;;;;;;;;;;5427595;26;4580;-58
2024/04/12 02:38:56;;;;;;;;;;;;;;;;;;5428248;26;5303;-57
2024/04/12 02:41:21;;;;;;;;;;;;;;;;;;5412579;26;3434;-58
2024/04/12 02:43:58;;;;;;;;;;;;;;;;;;5383725;26;4623;-58
2024/04/12 02:46:23;;;;;;;;;;;;;;;;;;5383174;26;5245;-59
2024/04/12 02:48:49;;;;;;;;;;;;;;;;;;5385990;26;5109;-57
2024/04/12 02:51:18;;;;;;;;;;;;;;;;;;5392371;26;5004;-58
2024/04/12 02:53:44;;;;;;;;;;;;;;;;;;5379552;26;3657;-58
2024/04/12 02:56:12;;;;;;;;;;;;;;;;;;5382886;26;5324;-58
2024/04/12 02:58:39;;;;;;;;;;;;;;;;;;5397207;26;5151;-58
2024/04/12 03:01:13;;;;;;;;;;;;;;;;;;5396047;26;5501;-58
2024/04/12 03:03:41;;;;;;;;;;;;;;;;;;5390348;26;5240;-58
2024/04/12 03:06:09;;;;;;;;;;;;;;;;;;5378686;26;5188;-57
2024/04/12 03:08:36;;;;;;;;;;;;;;;;;;5390515;26;3689;-57
2024/04/12 03:11:22;;;;;;;;;;;;;;;;;;5393959;26;5243;-58
2024/04/12 03:13:51;;;;;;;;;;;;;;;;;;5397191;26;5185;-57
2024/04/12 03:16:18;;;;;;;;;;;;;;;;;;5391589;26;4711;-58
2024/04/12 03:18:44;;;;;;;;;;;;;;;;;;5379239;26;5169;-58
2024/04/12 03:21:11;;;;;;;;;;;;;;;;;;5417571;26;5346;-57
2024/04/12 03:23:37;;;;;;;;;;;;;;;;;;5382918;26;3587;-58
2024/04/12 03:26:02;;;;;;;;;;;;;;;;;;5391358;26;5091;-57
2024/04/12 03:28:30;;;;;;;;;;;;;;;;;;5397937;26;5359;-58
2024/04/12 03:30:55;;;;;;;;;;;;;;;;;;5394391;26;5258;-58
2024/04/12 03:33:21;;;;;;;;;;;;;;;;;;5399030;26;5227;-57
2024/04/12 03:35:46;;;;;;;;;;;;;;;;;;5386861;26;5275;-57
2024/04/12 03:38:28;;;;;;;;;;;;;;;;;;5390356;26;3484;-58
2024/04/12 03:41:03;;;;;;;;;;;;;;;;;;5380142;26;5080;-58
2024/04/12 03:43:28;;;;;;;;;;;;;;;;;;5383759;26;4591;-58
2024/04/12 03:46:00;;;;;;;;;;;;;;;;;;5394702;26;5310;-58
2024/04/12 03:48:26;;;;;;;;;;;;;;;;;;5387622;26;5373;-58
2024/04/12 03:51:01;;;;;;;;;;;;;;;;;;5386163;26;5225;-58
2024/04/12 03:53:30;;;;;;;;;;;;;;;;;;5395727;26;3437;-58
2024/04/12 03:55:56;;;;;;;;;;;;;;;;;;5386282;26;5107;-58
2024/04/12 03:58:22;;;;;;;;;;;;;;;;;;5386754;26;4586;-57
2024/04/12 04:00:48;;;;;;;;;;;;;;;;;;5380362;26;4549;-58
2024/04/12 04:03:31;;;;;;;;;;;;;;;;;;5396624;26;4640;-57
2024/04/12 04:05:57;;;;;;;;;;;;;;;;;;5425938;26;5277;-57
2024/04/12 04:08:23;;;;;;;;;;;;;;;;;;5434662;26;3634;-57
2024/04/12 04:10:49;;;;;;;;;;;;;;;;;;5435510;26;4684;-58
2024/04/12 04:13:15;;;;;;;;;;;;;;;;;;5409746;26;5253;-57
2024/04/12 04:15:50;;;;;;;;;;;;;;;;;;5387557;26;6024;-57
2024/04/12 04:18:17;;;;;;;;;;;;;;;;;;5379077;26;5293;-57
2024/04/12 04:20:43;;;;;;;;;;;;;;;;;;5389910;26;3572;-58
2024/04/12 04:23:08;;;;;;;;;;;;;;;;;;5381348;26;5144;-57
2024/04/12 04:25:33;;;;;;;;;;;;;;;;;;5420964;26;5330;-57
2024/04/12 04:27:59;;;;;;;;;;;;;;;;;;5436425;26;5231;-58
2024/04/12 04:30:25;;;;;;;;;;;;;;;;;;5431508;26;5072;-58
2024/04/12 04:32:52;;;;;;;;;;;;;;;;;;5414981;26;5417;-58
2024/04/12 04:35:18;;;;;;;;;;;;;;;;;;5434703;26;3542;-58
2024/04/12 04:37:44;;;;;;;;;;;;;;;;;;5426180;26;4551;-57
2024/04/12 04:40:28;;;;;;;;;;;;;;;;;;5435071;26;5118;-57
2024/04/12 04:42:54;;;;;;;;;;;;;;;;;;5409569;26;5238;-57
2024/04/12 04:45:21;;;;;;;;;;;;;;;;;;5419255;26;5223;-58
2024/04/12 04:47:49;;;;;;;;;;;;;;;;;;5383875;26;4551;-59
2024/04/12 04:50:17;;;;;;;;;;;;;;;;;;5391015;26;3767;-58
2024/04/12 04:52:44;;;;;;;;;;;;;;;;;;5373109;26;4584;-59
2024/04/12 04:55:12;;;;;;;;;;;;;;;;;;5380874;26;5157;-58
2024/04/12 04:57:43;;;;;;;;;;;;;;;;;;5375738;26;5216;-59
2024/04/12 05:00:09;;;;;;;;;;;;;;;;;;5388869;26;4827;-56
2024/04/12 05:02:34;;;;;;;;;;;;;;;;;;5382832;26;3464;-58
2024/04/12 05:05:04;;;;;;;;;;;;;;;;;;5397099;26;5044;-57
2024/04/12 05:07:34;;;;;;;;;;;;;;;;;;5395383;26;4559;-57
2024/04/12 05:10:14;;;;;;;;;;;;;;;;;;5393815;26;4683;-57
2024/04/12 05:12:40;;;;;;;;;;;;;;;;;;5379536;26;5506;-57
2024/04/12 05:15:31;;;;;;;;;;;;;;;;;;5404592;26;5102;-57
2024/04/12 05:17:54;;;;;;;;;;;;;;;;;;5389509;26;5114;-55
2024/04/12 05:20:20;;;;;;;;;;;;;;;;;;5385057;26;1403;-56
2024/04/12 05:22:46;;;;;;;;;;;;;;;;;;5384762;26;4718;-57
2024/04/12 05:25:13;;;;;;;;;;;;;;;;;;5374426;26;5293;-57
2024/04/12 05:27:42;;;;;;;;;;;;;;;;;;5391352;26;4689;-56
2024/04/12 05:30:07;;;;;;;;;;;;;;;;;;5383075;26;4552;-57
2024/04/12 05:32:33;;;;;;;;;;;;;;;;;;5407410;26;1424;-57
2024/04/12 05:34:59;;;;;;;;;;;;;;;;;;5392582;26;4661;-57
2024/04/12 05:37:28;;;;;;;;;;;;;;;;;;5391097;26;4692;-57
2024/04/12 05:39:57;;;;;;;;;;;;;;;;;;5387924;26;5269;-57
2024/04/12 05:42:22;;;;;;;;;;;;;;;;;;5374695;26;5169;-57
2024/04/12 05:44:49;;;;;;;;;;;;;;;;;;5373901;26;5114;-56
2024/04/12 05:47:17;;;;;;;;;;;;;;;;;;5390361;26;3566;-57
2024/04/12 05:49:46;;;;;;;;;;;;;;;;;;5391006;26;5065;-57
2024/04/12 05:52:12;;;;;;;;;;;;;;;;;;5389778;26;5300;-57
2024/04/12 05:54:44;;;;;;;;;;;;;;;;;;5379252;26;5045;-57
2024/04/12 05:57:11;;;;;;;;;;;;;;;;;;5385519;26;5351;-56
2024/04/12 05:59:41;;;;;;;;;;;;;;;;;;5384369;26;2893;-57
2024/04/12 06:02:09;;;;;;;;;;;;;;;;;;5375973;26;5152;-57
2024/04/12 06:04:36;;;;;;;;;;;;;;;;;;5383939;26;5023;-57
2024/04/12 06:07:07;;;;;;;;;;;;;;;;;;5390317;26;5044;-57
2024/04/12 06:09:34;;;;;;;;;;;;;;;;;;5386863;26;5165;-57
2024/04/12 06:12:02;;;;;;;;;;;;;;;;;;5400889;26;5262;-57
2024/04/12 06:14:28;;;;;;;;;;;;;;;;;;5387480;26;1410;-57
2024/04/12 06:16:57;;;;;;;;;;;;;;;;;;5383577;26;5108;-57
2024/04/12 06:19:25;;;;;;;;;;;;;;;;;;5377653;26;5912;-57
2024/04/12 06:21:50;;;;;;;;;;;;;;;;;;5392995;26;5239;-56
2024/04/12 06:24:16;;;;;;;;;;;;;;;;;;5387855;26;5110;-56
2024/04/12 06:26:42;;;;;;;;;;;;;;;;;;5378748;26;3655;-57
2024/04/12 06:29:08;;;;;;;;;;;;;;;;;;5390345;26;5031;-57
2024/04/12 06:31:36;;;;;;;;;;;;;;;;;;5399874;26;5407;-57
2024/04/12 06:34:05;;;;;;;;;;;;;;;;;;5376328;26;5237;-57
2024/04/12 06:36:34;;;;;;;;;;;;;;;;;;5382617;26;5068;-57
2024/04/12 06:39:05;;;;;;;;;;;;;;;;;;5403110;26;5075;-57
2024/04/12 06:41:31;;;;;;;;;;;;;;;;;;5399150;26;1865;-57
2024/04/12 06:43:56;;;;;;;;;;;;;;;;;;5393709;26;5188;-58
2024/04/12 06:46:27;;;;;;;;;;;;;;;;;;5393655;26;5098;-57
2024/04/12 06:48:52;;;;;;;;;;;;;;;;;;5393415;26;5136;-57
2024/04/12 06:51:18;;;;;;;;;;;;;;;;;;5408371;26;5142;-56
2024/04/12 06:53:46;;;;;;;;;;;;;;;;;;5377488;26;1232;-57
2024/04/12 06:56:15;;;;;;;;;;;;;;;;;;5378728;26;4600;-57
2024/04/12 06:58:43;;;;;;;;;;;;;;;;;;5393135;26;5294;-57
2024/04/12 07:01:10;;;;;;;;;;;;;;;;;;5395940;26;5265;-57
2024/04/12 07:03:36;;;;;;;;;;;;;;;;;;5404320;26;5173;-57
2024/04/12 07:06:01;;;;;;;;;;;;;;;;;;5432347;26;4564;-57
2024/04/12 07:08:27;;;;;;;;;;;;;;;;;;5424156;26;3536;-57
2024/04/12 07:10:53;;;;;;;;;;;;;;;;;;5389048;26;5135;-57
2024/04/12 07:13:21;;;;;;;;;;;;;;;;;;5386867;26;5088;-57
2024/04/12 07:15:49;;;;;;;;;;;;;;;;;;5404319;26;4726;-57
2024/04/12 07:18:17;;;;;;;;;;;;;;;;;;5425308;26;5101;-57
2024/04/12 07:20:46;;;;;;;;;;;;;;;;;;5426767;26;3195;-56
2024/04/12 07:23:15;;;;;;;;;;;;;;;;;;5431290;26;5026;-56
2024/04/12 07:25:41;;;;;;;;;;;;;;;;;;5409245;26;5261;-57
2024/04/12 07:28:09;;;;;;;;;;;;;;;;;;5403455;26;5215;-57
2024/04/12 07:30:37;;;;;;;;;;;;;;;;;;5386258;26;5465;-57
2024/04/12 07:33:05;;;;;;;;;;;;;;;;;;5399060;26;5049;-57
2024/04/12 07:35:32;;;;;;;;;;;;;;;;;;5393799;26;1315;-57
2024/04/12 07:38:01;;;;;;;;;;;;;;;;;;5395770;26;4630;-57
2024/04/12 07:40:31;;;;;;;;;;;;;;;;;;5391608;26;5112;-57
2024/04/12 07:42:58;;;;;;;;;;;;;;;;;;5396998;26;5174;-57
2024/04/12 07:45:26;;;;;;;;;;;;;;;;;;5383281;26;4683;-56
2024/04/12 07:48:11;;;;;;;;;;;;;;;;;;5386871;26;5104;-56
2024/04/12 07:50:39;;;;;;;;;;;;;;;;;;5379013;26;3377;-57
2024/04/12 07:53:10;;;;;;;;;;;;;;;;;;5396344;26;5017;-57
2024/04/12 07:55:41;;;;;;;;;;;;;;;;;;5380477;26;5275;-57
2024/04/12 07:58:10;;;;;;;;;;;;;;;;;;5405235;26;5251;-57
2024/04/12 08:00:48;;;;;;;;;;;;;;;;;;5414709;26;5232;-57
2024/04/12 08:03:16;;;;;;;;;;;;;;;;;;5424240;26;5229;-57
2024/04/12 08:05:59;;;;;;;;;;;;;;;;;;5429214;26;3610;-57
2024/04/12 08:08:27;;;;;;;;;;;;;;;;;;5415559;26;5313;-57
2024/04/12 08:11:10;;;;;;;;;;;;;;;;;;5424655;26;4513;-56
2024/04/12 08:13:43;;;;;;;;;;;;;;;;;;5440243;26;4603;-57
2024/04/12 08:16:09;;;;;;;;;;;;;;;;;;5425720;26;5190;-56
2024/04/12 08:18:43;;;;;;;;;;;;;;;;;;5427194;26;5201;-56
2024/04/12 08:21:12;;;;;;;;;;;;;;;;;;5429510;26;5283;-55
2024/04/12 08:23:43;;;;;;;;;;;;;;;;;;5422159;26;3511;-57
2024/04/12 08:26:10;;;;;;;;;;;;;;;;;;5428095;26;5168;-56
2024/04/12 08:28:36;;;;;;;;;;;;;;;;;;5396938;26;5064;-57
2024/04/12 08:31:05;;;;;;;;;;;;;;;;;;5384841;26;5189;-57
2024/04/12 08:33:32;;;;;;;;;;;;;;;;;;5382807;26;5084;-57
2024/04/12 08:35:57;;;;;;;;;;;;;;;;;;5377376;26;5151;-57
2024/04/12 08:38:23;;;;;;;;;;;;;;;;;;5395539;26;1291;-57
2024/04/12 08:40:56;;;;;;;;;;;;;;;;;;5380283;26;5094;-57
2024/04/12 08:43:41;;;;;;;;;;;;;;;;;;5382199;26;5362;-57
2024/04/12 08:46:14;;;;;;;;;;;;;;;;;;5393457;26;5369;-57
2024/04/12 08:48:41;;;;;;;;;;;;;;;;;;5399943;26;5853;-57
2024/04/12 08:51:09;;;;;;;;;;;;;;;;;;5388016;26;5128;-60
2024/04/12 08:53:34;;;;;;;;;;;;;;;;;;5401273;26;1502;-56
2024/04/12 08:56:01;;;;;;;;;;;;;;;;;;5404320;26;4447;-57
2024/04/12 08:58:26;;;;;;;;;;;;;;;;;;5390808;26;5402;-56
2024/04/12 09:00:52;;;;;;;;;;;;;;;;;;5393220;26;5164;-56
2024/04/12 09:03:25;;;;;;;;;;;;;;;;;;5391776;26;4591;-56
2024/04/12 09:05:52;;;;;;;;;;;;;;;;;;5384626;26;5187;-56
2024/04/12 09:08:18;;;;;;;;;;;;;;;;;;5390448;26;1768;-56
2024/04/12 09:10:43;;;;;;;;;;;;;;;;;;5392516;26;5260;-56
2024/04/12 09:13:14;;;;;;;;;;;;;;;;;;5385417;26;5038;-56
2024/04/12 09:15:43;;;;;;;;;;;;;;;;;;5394942;26;5263;-56
2024/04/12 09:18:15;;;;;;;;;;;;;;;;;;5382561;26;5122;-56
2024/04/12 09:20:41;;;;;;;;;;;;;;;;;;5386950;26;3575;-56
2024/04/12 09:23:16;;;;;;;;;;;;;;;;;;5391884;26;5122;-56
2024/04/12 09:25:43;;;;;;;;;;;;;;;;;;5386308;26;5097;-57
2024/04/12 09:28:16;;;;;;;;;;;;;;;;;;5400090;26;4799;-56
2024/04/12 09:33:27;;;;;;;;;;;;;;;;;;5390808;26;5046;-56
2024/04/12 09:35:53;;;;;;;;;;;;;;;;;;5391928;26;5175;-56
2024/04/12 09:38:21;;;;;;;;;;;;;;;;;;5389882;26;1365;-56
2024/04/12 09:40:52;;;;;;;;;;;;;;;;;;5374111;26;5136;-55
2024/04/12 09:46:00;;;;;;;;;;;;;;;;;;5378280;26;5680;-55
2024/04/12 10:37:51;;;;;;;;;;;;;;;;;;5435193;26;4694;-56
2024/04/12 10:40:16;;;;;;;;;;;;;;;;;;5431671;26;4566;-56
2024/04/12 10:42:47;;;;;;;;;;;;;;;;;;5425537;26;4563;-56
2024/04/12 10:45:15;;;;;;;;;;;;;;;;;;5414165;26;4964;-57
2024/04/12 10:47:44;;;;;;;;;;;;;;;;;;5430647;26;3530;-56
2024/04/12 10:50:10;;;;;;;;;;;;;;;;;;5434421;26;5282;-57
2024/04/12 10:52:35;;;;;;;;;;;;;;;;;;5423741;26;5078;-56
2024/04/12 10:55:01;;;;;;;;;;;;;;;;;;5420289;26;5168;-56
2024/04/12 10:57:29;;;;;;;;;;;;;;;;;;5417025;26;5089;-57
2024/04/12 10:59:54;;;;;;;;;;;;;;;;;;5414778;26;5157;-57
2024/04/12 11:02:22;;;;;;;;;;;;;;;;;;5429992;26;3749;-56
2024/04/12 11:05:05;;;;;;;;;;;;;;;;;;5420967;26;4479;-56
2024/04/12 11:07:31;;;;;;;;;;;;;;;;;;5426361;26;5080;-56
2024/04/12 11:10:03;;;;;;;;;;;;;;;;;;5429330;26;5207;-56
2024/04/12 11:12:40;;;;;;;;;;;;;;;;;;5433549;26;4506;-57
2024/04/12 11:31:39;;;;;;;;;;;;;;;;;;5424255;26;5289;-56
2024/04/12 11:34:06;;;;;;;;;;;;;;;;;;5404865;26;4674;-56
2024/04/12 11:36:33;;;;;;;;;;;;;;;;;;5382898;26;4637;-56
2024/04/12 11:39:17;;;;;;;;;;;;;;;;;;5399784;26;4663;-56
2024/04/12 11:41:44;;;;;;;;;;;;;;;;;;5379280;26;1872;-57
2024/04/12 11:44:10;;;;;;;;;;;;;;;;;;5404321;26;5633;-56
2024/04/12 11:46:35;;;;;;;;;;;;;;;;;;5394727;26;5180;-56
2024/04/12 11:49:07;;;;;;;;;;;;;;;;;;5404021;26;5082;-56
2024/04/12 11:51:33;;;;;;;;;;;;;;;;;;5398404;26;5043;-56
2024/04/12 11:53:59;;;;;;;;;;;;;;;;;;5404804;26;5063;-56
2024/04/12 11:56:24;;;;;;;;;;;;;;;;;;5417904;26;3566;-57
2024/04/12 11:58:51;;;;;;;;;;;;;;;;;;5392176;26;5168;-56
2024/04/12 12:01:16;;;;;;;;;;;;;;;;;;5405336;26;5170;-56
2024/04/12 12:03:42;;;;;;;;;;;;;;;;;;5390296;26;5259;-56
2024/04/12 12:06:07;;;;;;;;;;;;;;;;;;5426331;26;4891;-56
2024/04/12 12:08:40;;;;;;;;;;;;;;;;;;5425720;26;3361;-57
2024/04/12 12:11:06;;;;;;;;;;;;;;;;;;5425142;26;5017;-56
2024/04/12 12:13:32;;;;;;;;;;;;;;;;;;5427972;26;4537;-56
2024/04/12 12:15:58;;;;;;;;;;;;;;;;;;5405915;26;5166;-57
2024/04/12 12:18:27;;;;;;;;;;;;;;;;;;5376165;26;4637;-56
2024/04/12 12:20:52;;;;;;;;;;;;;;;;;;5385750;26;4789;-56
2024/04/12 12:23:18;;;;;;;;;;;;;;;;;;5390742;26;3621;-56
2024/04/12 12:25:43;;;;;;;;;;;;;;;;;;5384735;26;5236;-56
2024/04/12 12:28:09;;;;;;;;;;;;;;;;;;5398210;26;4549;-56
2024/04/12 12:30:34;;;;;;;;;;;;;;;;;;5401354;26;5327;-57
2024/04/12 12:33:00;;;;;;;;;;;;;;;;;;5406501;26;5172;-56
2024/04/12 12:35:29;;;;;;;;;;;;;;;;;;5380727;26;1280;-56
2024/04/12 12:37:55;;;;;;;;;;;;;;;;;;5383576;26;5121;-56
2024/04/12 12:40:21;;;;;;;;;;;;;;;;;;5420234;26;5081;-56
2024/04/12 12:42:47;;;;;;;;;;;;;;;;;;5422061;26;4756;-56
2024/04/12 12:45:15;;;;;;;;;;;;;;;;;;5421869;26;5203;-56
2024/04/12 12:47:41;;;;;;;;;;;;;;;;;;5428415;26;3156;-56
2024/04/12 12:50:18;;;;;;;;;;;;;;;;;;5401456;26;5087;-56
2024/04/12 12:52:49;;;;;;;;;;;;;;;;;;5387791;26;5210;-56
2024/04/12 12:55:16;;;;;;;;;;;;;;;;;;5400677;26;5169;-56
2024/04/12 12:57:44;;;;;;;;;;;;;;;;;;5407902;26;4604;-56
2024/04/12 13:00:18;;;;;;;;;;;;;;;;;;5422223;26;4560;-56
2024/04/12 13:02:44;;;;;;;;;;;;;;;;;;5426785;26;1829;-57
2024/04/12 13:05:14;;;;;;;;;;;;;;;;;;5431816;26;5131;-56
2024/04/12 13:07:39;;;;;;;;;;;;;;;;;;5416951;26;4519;-56
2024/04/12 13:10:12;;;;;;;;;;;;;;;;;;5426153;26;4566;-56
2024/04/12 13:12:38;;;;;;;;;;;;;;;;;;5420725;26;5333;-56
2024/04/12 13:15:04;;;;;;;;;;;;;;;;;;5382982;26;5127;-56
2024/04/12 13:17:36;;;;;;;;;;;;;;;;;;5379428;26;1410;-56
2024/04/12 13:20:05;;;;;;;;;;;;;;;;;;5401383;26;5142;-56
2024/04/12 13:22:32;;;;;;;;;;;;;;;;;;5387776;26;4776;-56
2024/04/12 13:24:57;;;;;;;;;;;;;;;;;;5402557;26;5206;-56
2024/04/12 13:27:23;;;;;;;;;;;;;;;;;;5390090;26;5195;-56
2024/04/12 13:29:49;;;;;;;;;;;;;;;;;;5380331;26;5259;-56
2024/04/12 13:32:14;;;;;;;;;;;;;;;;;;5387335;26;1395;-56
2024/04/12 13:34:39;;;;;;;;;;;;;;;;;;5379345;26;5161;-56
2024/04/12 13:37:08;;;;;;;;;;;;;;;;;;5395335;26;5124;-56
2024/04/12 13:39:36;;;;;;;;;;;;;;;;;;5399102;26;5115;-57
2024/04/12 13:42:03;;;;;;;;;;;;;;;;;;5392454;26;5193;-56
2024/04/12 13:52:42;;;;;;;;;;;;;;;;;;5388614;26;5213;-57
2024/04/12 13:55:10;;;;;;;;;;;;;;;;;;5392327;26;5174;-56
2024/04/12 13:57:38;;;;;;;;;;;;;;;;;;5383539;26;4680;-57
2024/04/12 14:00:09;;;;;;;;;;;;;;;;;;5390540;26;5196;-57
2024/04/12 14:02:35;;;;;;;;;;;;;;;;;;5394986;26;3583;-56
2024/04/12 14:05:02;;;;;;;;;;;;;;;;;;5418201;26;5132;-56
2024/04/12 14:07:33;;;;;;;;;;;;;;;;;;5417155;26;5059;-56
2024/04/12 14:10:01;;;;;;;;;;;;;;;;;;5424205;26;4592;-56
2024/04/12 14:12:27;;;;;;;;;;;;;;;;;;5419207;26;5193;-57
2024/04/12 14:14:52;;;;;;;;;;;;;;;;;;5375738;26;5214;-55
2024/04/12 14:17:19;;;;;;;;;;;;;;;;;;5389558;26;3569;-55
2024/04/12 14:19:46;;;;;;;;;;;;;;;;;;5393325;26;5063;-55
2024/04/12 14:22:11;;;;;;;;;;;;;;;;;;5392654;26;5243;-55
2024/04/12 14:27:21;;;;;;;;;;;;;;;;;;5408626;26;4597;-56
2024/04/12 14:29:46;;;;;;;;;;;;;;;;;;5396563;26;4660;-55
2024/04/12 14:32:15;;;;;;;;;;;;;;;;;;5390221;26;1797;-55
2024/04/12 14:34:44;;;;;;;;;;;;;;;;;;5390335;26;5094;-56
2024/04/12 14:37:13;;;;;;;;;;;;;;;;;;5392014;26;5159;-57
2024/04/12 14:39:42;;;;;;;;;;;;;;;;;;5393403;26;5234;-57
2024/04/12 14:42:07;;;;;;;;;;;;;;;;;;5431498;26;4686;-56
2024/04/12 14:44:36;;;;;;;;;;;;;;;;;;5422399;26;3391;-56
2024/04/12 14:47:01;;;;;;;;;;;;;;;;;;5429641;26;4695;-56
2024/04/12 14:49:27;;;;;;;;;;;;;;;;;;5433827;26;4625;-57
2024/04/12 14:51:55;;;;;;;;;;;;;;;;;;5426387;26;4792;-56
2024/04/12 14:54:22;;;;;;;;;;;;;;;;;;5422145;26;5190;-56
2024/04/12 14:56:47;;;;;;;;;;;;;;;;;;5426262;26;6122;-56
2024/04/12 14:59:12;;;;;;;;;;;;;;;;;;5423671;26;3416;-56
2024/04/12 15:01:38;;;;;;;;;;;;;;;;;;5431176;26;5168;-56
2024/04/12 15:50:26;;;;;;;;;;;;;;;;;;5415867;26;4526;-59
2024/04/12 15:55:57;;;;;;;;;;;;;;;;;;5401259;26;5351;-58
2024/04/12 16:12:06;;;;;;;;;;;;;;;;;;5424065;26;5140;-59
2024/04/12 16:14:31;;;;;;;;;;;;;;;;;;5427536;26;3901;-59
2024/04/12 16:16:56;;;;;;;;;;;;;;;;;;5416714;26;5056;-60
2024/04/12 16:19:22;;;;;;;;;;;;;;;;;;5424603;26;5159;-61
2024/04/12 16:21:50;;;;;;;;;;;;;;;;;;5435892;26;5272;-58
2024/04/12 16:24:15;;;;;;;;;;;;;;;;;;5425191;26;5193;-58
2024/04/12 16:26:41;;;;;;;;;;;;;;;;;;5417320;26;3830;-58
2024/04/12 16:29:08;;;;;;;;;;;;;;;;;;5423761;26;5407;-58
2024/04/12 16:31:34;;;;;;;;;;;;;;;;;;5435342;26;5114;-58
2024/04/12 16:33:59;;;;;;;;;;;;;;;;;;5402244;26;5078;-60
2024/04/12 16:36:25;;;;;;;;;;;;;;;;;;5410010;26;5311;-59
2024/04/12 16:38:51;;;;;;;;;;;;;;;;;;5433747;26;4555;-60
2024/04/12 16:41:18;;;;;;;;;;;;;;;;;;5417323;26;3635;-59
2024/04/12 16:43:45;;;;;;;;;;;;;;;;;;5424560;26;5185;-60
2024/04/12 16:46:10;;;;;;;;;;;;;;;;;;5429912;26;5318;-60
2024/04/12 16:48:35;;;;;;;;;;;;;;;;;;5426804;26;5168;-60
2024/04/12 16:51:01;;;;;;;;;;;;;;;;;;5416142;26;5173;-60
2024/04/12 16:53:26;;;;;;;;;;;;;;;;;;5418693;26;4398;-60
2024/04/12 16:55:53;;;;;;;;;;;;;;;;;;5388229;26;4653;-59
2024/04/12 16:58:18;;;;;;;;;;;;;;;;;;5382148;26;5152;-58
2024/04/12 17:00:45;;;;;;;;;;;;;;;;;;5383545;26;5124;-58
2024/04/12 17:03:11;;;;;;;;;;;;;;;;;;5399947;26;5259;-58
2024/04/12 17:05:37;;;;;;;;;;;;;;;;;;5402854;26;1518;-58
2024/04/12 17:08:03;;;;;;;;;;;;;;;;;;5392925;26;4507;-58
2024/04/12 17:10:31;;;;;;;;;;;;;;;;;;5427474;26;5244;-58
2024/04/12 17:12:56;;;;;;;;;;;;;;;;;;5426713;26;5187;-58
2024/04/12 17:15:22;;;;;;;;;;;;;;;;;;5433395;26;5205;-58
2024/04/12 17:17:47;;;;;;;;;;;;;;;;;;5423552;26;5098;-58
2024/04/12 17:20:13;;;;;;;;;;;;;;;;;;5419131;26;1366;-58
2024/04/12 17:22:38;;;;;;;;;;;;;;;;;;5433652;26;5254;-58
2024/04/12 17:25:04;;;;;;;;;;;;;;;;;;5422332;26;4614;-58
2024/04/12 17:27:30;;;;;;;;;;;;;;;;;;5413983;26;4544;-58
2024/04/12 17:29:56;;;;;;;;;;;;;;;;;;5418018;26;5088;-58
2024/04/12 17:32:22;;;;;;;;;;;;;;;;;;5419991;26;1300;-58
2024/04/12 17:34:47;;;;;;;;;;;;;;;;;;5407378;26;5090;-58
2024/04/12 17:37:12;;;;;;;;;;;;;;;;;;5425973;26;5258;-58
2024/04/12 17:39:38;;;;;;;;;;;;;;;;;;5425321;26;5249;-58
2024/04/12 17:42:06;;;;;;;;;;;;;;;;;;5437552;26;5246;-58
2024/04/12 17:44:34;;;;;;;;;;;;;;;;;;5415189;26;3638;-58
2024/04/12 17:47:01;;;;;;;;;;;;;;;;;;5413151;26;4730;-58
2024/04/12 17:49:26;;;;;;;;;;;;;;;;;;5413166;26;5119;-58
2024/04/12 17:51:52;;;;;;;;;;;;;;;;;;5395302;26;5197;-58
2024/04/12 17:54:17;;;;;;;;;;;;;;;;;;5376961;26;4616;-58
2024/04/12 17:56:42;;;;;;;;;;;;;;;;;;5386696;26;3429;-57
2024/04/12 17:59:08;;;;;;;;;;;;;;;;;;5371439;26;4533;-58
2024/04/12 18:01:33;;;;;;;;;;;;;;;;;;5400870;26;5308;-58
2024/04/12 18:04:06;;;;;;;;;;;;;;;;;;5399207;26;5155;-57
2024/04/12 18:06:31;;;;;;;;;;;;;;;;;;5393542;26;4738;-57
2024/04/12 18:08:57;;;;;;;;;;;;;;;;;;5398225;26;5301;-57
2024/04/12 18:11:22;;;;;;;;;;;;;;;;;;5393684;26;3819;-58
2024/04/12 18:13:48;;;;;;;;;;;;;;;;;;5385578;26;5387;-57
2024/04/12 18:16:13;;;;;;;;;;;;;;;;;;5407663;26;5237;-57
2024/04/12 18:18:38;;;;;;;;;;;;;;;;;;5403093;26;4590;-57
2024/04/12 18:21:08;;;;;;;;;;;;;;;;;;5395772;26;5170;-57
2024/04/12 18:23:34;;;;;;;;;;;;;;;;;;5412972;26;3417;-57
2024/04/12 18:26:00;;;;;;;;;;;;;;;;;;5424919;26;4501;-57
2024/04/12 18:28:25;;;;;;;;;;;;;;;;;;5422192;26;5067;-57
2024/04/12 18:30:51;;;;;;;;;;;;;;;;;;5432178;26;5071;-57
2024/04/12 18:33:20;;;;;;;;;;;;;;;;;;5419773;26;4761;-57
2024/04/12 18:36:01;;;;;;;;;;;;;;;;;;5414870;26;1403;-56
2024/04/12 18:46:37;;;;;;;;;;;;;;;;;;5436256;26;5158;-57
2024/04/12 18:49:03;;;;;;;;;;;;;;;;;;5413438;26;5249;-58
2024/04/12 18:51:29;;;;;;;;;;;;;;;;;;5430172;26;5089;-58
2024/04/12 18:53:54;;;;;;;;;;;;;;;;;;5430310;26;4546;-57
2024/04/12 18:56:20;;;;;;;;;;;;;;;;;;5420460;26;3635;-57
2024/04/12 18:58:45;;;;;;;;;;;;;;;;;;5428400;26;4515;-57
2024/04/12 19:01:12;;;;;;;;;;;;;;;;;;5430323;26;5158;-57
2024/04/12 19:03:37;;;;;;;;;;;;;;;;;;5416268;26;5219;-58
2024/04/12 19:06:04;;;;;;;;;;;;;;;;;;5421256;26;4778;-57
2024/04/12 19:08:30;;;;;;;;;;;;;;;;;;5423885;26;4071;-57
2024/04/12 19:10:55;;;;;;;;;;;;;;;;;;5430110;26;5163;-57
2024/04/12 19:13:21;;;;;;;;;;;;;;;;;;5407321;26;5028;-57
2024/04/12 19:15:48;;;;;;;;;;;;;;;;;;5380900;26;5110;-57
2024/04/12 19:18:13;;;;;;;;;;;;;;;;;;5402241;26;5110;-57
2024/04/12 19:20:39;;;;;;;;;;;;;;;;;;5400393;26;3892;-57
2024/04/12 19:23:05;;;;;;;;;;;;;;;;;;5390841;26;4611;-57
2024/04/12 19:25:31;;;;;;;;;;;;;;;;;;5377571;26;5219;-57
2024/04/12 19:27:57;;;;;;;;;;;;;;;;;;5396179;26;4696;-57
2024/04/12 19:30:22;;;;;;;;;;;;;;;;;;5387208;26;5137;-57
2024/04/12 19:32:48;;;;;;;;;;;;;;;;;;5383330;26;4572;-56
2024/04/12 19:35:14;;;;;;;;;;;;;;;;;;5386382;26;3717;-57
2024/04/12 19:37:40;;;;;;;;;;;;;;;;;;5393202;26;5139;-57
2024/04/12 19:40:08;;;;;;;;;;;;;;;;;;5411861;26;5138;-57